createdAt,value
2018-04-07T00:02:38.231Z,70.10
2018-04-07T00:05:39.913Z,73.30
2018-04-07T00:08:41.241Z,74.90
2018-04-07T00:11:42.598Z,76.20
2018-04-07T00:14:43.871Z,76.30
2018-04-07T00:17:45.888Z,77.50
2018-04-07T00:20:47.164Z,77.40
2018-04-07T00:23:48.434Z,77.90
2018-04-07T00:26:50.106Z,77.90
2018-04-07T00:29:52.156Z,80.80
2018-04-07T00:32:54.164Z,79.10
2018-04-07T00:35:55.435Z,79.10
2018-04-07T00:38:57.445Z,79.00
2018-04-07T00:41:58.704Z,78.90
2018-04-07T00:45:00.725Z,79.90
2018-04-07T00:48:02.015Z,79.90
2018-04-07T00:51:03.285Z,82.30
2018-04-07T00:54:04.554Z,80.20
2018-04-07T00:57:05.849Z,82.10
2018-04-07T01:00:07.201Z,82.00
2018-04-07T01:03:09.209Z,80.90
2018-04-07T01:06:10.502Z,80.90
2018-04-07T01:09:18.833Z,82.20
2018-04-07T01:12:20.189Z,83.20
2018-04-07T01:15:22.254Z,80.90
2018-04-07T01:18:23.539Z,80.80
2018-04-07T01:21:25.550Z,82.20
2018-04-07T01:24:26.813Z,82.30
2018-04-07T01:27:28.101Z,82.20
2018-04-07T01:30:29.363Z,80.60
2018-04-07T01:33:30.638Z,81.70
2018-04-07T01:36:31.909Z,82.70
2018-04-07T01:39:33.209Z,81.70
2018-04-07T01:42:34.505Z,80.60
2018-04-07T01:45:35.761Z,81.50
2018-04-07T01:48:37.033Z,81.20
2018-04-07T01:51:38.293Z,82.10
2018-04-07T01:54:39.971Z,81.40
2018-04-07T01:57:42.138Z,83.10
2018-04-07T02:00:44.149Z,83.50
2018-04-07T02:03:46.153Z,81.90
2018-04-07T02:06:47.417Z,81.90
2018-04-07T02:09:49.420Z,86.80
2018-04-07T02:12:51.433Z,85.20
2018-04-07T02:15:52.698Z,85.00
2018-04-07T02:18:53.985Z,85.40
2018-04-07T02:21:55.245Z,85.80
2018-04-07T02:24:57.249Z,86.90
2018-04-07T02:27:59.309Z,84.70
2018-04-07T02:31:00.592Z,84.60
2018-04-07T02:34:01.867Z,84.40
2018-04-07T02:37:03.158Z,85.50
2018-04-07T02:40:11.503Z,84.40
2018-04-07T02:43:12.770Z,87.20
2018-04-07T02:46:14.032Z,88.80
2018-04-07T02:49:15.315Z,91.40
2018-04-07T02:52:16.597Z,92.70
2018-04-07T02:55:17.872Z,92.00
2018-04-07T02:58:19.140Z,91.80
2018-04-07T03:01:20.419Z,89.90
2018-04-07T03:04:21.688Z,89.40
2018-04-07T03:07:22.960Z,89.80
2018-04-07T03:10:24.236Z,89.80
2018-04-07T03:13:25.498Z,88.90
2018-04-07T03:16:26.765Z,89.10
2018-04-07T03:19:28.785Z,90.30
2018-04-07T03:22:30.087Z,90.30
2018-04-07T03:25:31.372Z,89.70
2018-04-07T03:28:32.642Z,89.80
2018-04-07T03:31:33.934Z,90.80
2018-04-07T03:34:35.209Z,88.80
2018-04-07T03:37:36.469Z,89.70
2018-04-07T03:40:37.729Z,89.70
2018-04-07T03:43:38.999Z,89.50
2018-04-07T03:46:40.273Z,91.90
2018-04-07T03:49:42.288Z,91.60
2018-04-07T03:52:43.560Z,91.50
2018-04-07T03:55:44.826Z,92.00
2018-04-07T03:58:46.842Z,91.90
2018-04-07T04:01:48.117Z,91.80
2018-04-07T04:04:49.389Z,90.60
2018-04-07T04:07:50.653Z,90.90
2018-04-07T04:10:52.646Z,91.90
2018-04-07T04:13:54.673Z,92.20
2018-04-07T04:16:55.966Z,92.20
2018-04-07T04:19:57.233Z,92.00
2018-04-07T04:22:58.495Z,91.70
2018-04-07T04:25:59.766Z,92.10
2018-04-07T04:29:01.794Z,92.50
2018-04-07T04:32:03.065Z,92.50
2018-04-07T04:35:04.354Z,92.20
2018-04-07T04:38:05.625Z,92.50
2018-04-07T04:41:06.955Z,91.60
2018-04-07T04:44:08.610Z,91.90
2018-04-07T04:47:09.882Z,91.70
2018-04-07T04:50:11.187Z,91.80
2018-04-07T04:53:12.521Z,92.40
2018-04-07T04:56:13.782Z,92.40
2018-04-07T04:59:15.867Z,92.50
2018-04-07T05:02:17.144Z,92.40
2018-04-07T05:05:18.410Z,93.10
2018-04-07T05:08:19.692Z,92.10
2018-04-07T05:11:20.953Z,93.50
2018-04-07T05:14:23.841Z,93.10
2018-04-07T05:17:25.141Z,93.10
2018-04-07T05:20:26.410Z,93.20
2018-04-07T05:23:27.673Z,92.00
2018-04-07T05:26:28.989Z,91.00
2018-04-07T05:29:30.234Z,92.30
2018-04-07T05:32:31.463Z,91.30
2018-04-07T05:35:32.737Z,91.20
2018-04-07T05:38:33.991Z,92.00
2018-04-07T05:41:35.293Z,91.90
2018-04-07T05:44:36.565Z,92.10
2018-04-07T05:47:37.796Z,91.50
2018-04-07T05:50:39.051Z,93.60
2018-04-07T05:53:41.047Z,92.70
2018-04-07T05:56:43.019Z,91.60
2018-04-07T05:59:44.258Z,91.60
2018-04-07T06:02:45.545Z,92.60
2018-04-07T06:05:46.784Z,93.10
2018-04-07T06:08:48.864Z,92.00
2018-04-07T06:11:50.143Z,92.10
2018-04-07T06:14:51.500Z,91.10
2018-04-07T06:17:52.743Z,91.90
2018-04-07T06:20:54.045Z,91.80
2018-04-07T06:23:55.319Z,91.70
2018-04-07T06:26:56.559Z,91.10
2018-04-07T06:29:57.795Z,90.90
2018-04-07T06:32:59.057Z,91.70
2018-04-07T06:36:00.317Z,90.60
2018-04-07T06:39:01.583Z,90.40
2018-04-07T06:42:02.905Z,90.70
2018-04-07T06:45:04.177Z,90.50
2018-04-07T06:48:05.459Z,91.10
2018-04-07T06:51:07.007Z,90.60
2018-04-07T06:54:08.394Z,89.80
2018-04-07T06:57:09.668Z,88.70
2018-04-07T07:00:10.910Z,89.80
2018-04-07T07:03:12.911Z,88.60
2018-04-07T07:06:14.934Z,88.50
2018-04-07T07:09:16.243Z,88.40
2018-04-07T07:12:17.492Z,88.60
2018-04-07T07:15:18.715Z,87.90
2018-04-07T07:18:19.994Z,89.50
2018-04-07T07:21:21.226Z,88.50
2018-04-07T07:24:22.482Z,87.00
2018-04-07T07:27:24.511Z,85.20
2018-04-07T07:30:25.768Z,85.20
2018-04-07T07:33:27.059Z,86.10
2018-04-07T07:36:28.304Z,87.10
2018-04-07T07:39:30.343Z,84.20
2018-04-07T07:42:31.631Z,84.10
2018-04-07T07:45:32.887Z,83.10
2018-04-07T07:48:34.136Z,82.10
2018-04-07T07:51:35.373Z,83.10
2018-04-07T07:54:36.631Z,84.10
2018-04-07T07:57:37.874Z,81.40
2018-04-07T08:00:39.886Z,77.30
2018-04-07T08:03:41.138Z,77.30
2018-04-07T08:06:42.376Z,80.30
2018-04-07T08:09:43.617Z,78.70
2018-04-07T08:12:46.013Z,76.90
2018-04-07T08:15:48.012Z,78.60
2018-04-07T08:18:50.005Z,75.80
2018-04-07T08:21:52.001Z,76.50
2018-04-07T08:24:54.018Z,77.70
2018-04-07T08:27:55.311Z,77.70
2018-04-07T08:30:56.645Z,78.90
2018-04-07T08:33:58.663Z,73.60
2018-04-07T08:36:59.915Z,73.60
2018-04-07T08:40:01.214Z,72.90
2018-04-07T08:43:03.204Z,75.20
2018-04-07T08:46:05.203Z,74.90
2018-04-07T08:49:07.196Z,73.30
2018-04-07T08:52:09.223Z,72.10
2018-04-07T08:55:10.471Z,71.90
2018-04-07T08:58:12.488Z,71.90
2018-04-07T09:01:13.754Z,71.90
2018-04-07T09:04:15.766Z,71.00
2018-04-07T09:07:17.080Z,70.90
2018-04-07T09:10:18.384Z,73.60
2018-04-07T09:13:19.670Z,70.80
2018-04-07T09:16:20.923Z,69.60
2018-04-07T09:19:22.237Z,69.50
2018-04-07T09:22:24.220Z,67.50
2018-04-07T09:25:25.473Z,67.50
2018-04-07T09:28:26.807Z,66.90
2018-04-07T09:31:28.092Z,67.60
2018-04-07T09:34:29.333Z,71.10
2018-04-07T09:37:30.612Z,65.10
2018-04-07T09:40:31.939Z,62.20
2018-04-07T09:43:33.230Z,61.90
2018-04-07T09:46:34.527Z,63.80
2018-04-07T09:49:35.825Z,62.90
2018-04-07T09:52:37.087Z,64.80
2018-04-07T09:55:38.391Z,62.20
2018-04-07T09:58:39.633Z,59.40
2018-04-07T10:01:40.911Z,60.80
2018-04-07T10:04:42.148Z,58.40
2018-04-07T10:07:43.416Z,61.30
2018-04-07T10:10:45.450Z,60.30
2018-04-07T10:13:46.771Z,60.00
2018-04-07T10:16:48.015Z,54.20
2018-04-07T10:19:49.291Z,55.10
2018-04-07T10:22:50.560Z,54.40
2018-04-07T10:25:51.854Z,55.80
2018-04-07T10:28:53.158Z,56.90
2018-04-07T10:31:54.426Z,54.30
2018-04-07T10:34:55.660Z,54.40
2018-04-07T10:37:57.011Z,51.80
2018-04-07T10:40:59.092Z,56.60
2018-04-07T10:44:00.467Z,56.60
2018-04-07T10:47:01.715Z,51.80
2018-04-07T10:50:03.011Z,51.40
2018-04-07T10:53:04.283Z,50.60
2018-04-07T10:56:05.682Z,48.50
2018-04-07T10:59:06.936Z,47.20
2018-04-07T11:02:08.227Z,48.50
2018-04-07T11:05:10.365Z,48.20
2018-04-07T11:08:11.647Z,48.20
2018-04-07T11:11:13.033Z,47.30
2018-04-07T11:14:15.047Z,48.10
2018-04-07T11:17:16.416Z,48.20
2018-04-07T11:20:18.419Z,46.70
2018-04-07T11:23:20.535Z,45.90
2018-04-07T11:26:21.848Z,45.80
2018-04-07T11:29:23.216Z,46.60
2018-04-07T11:32:24.623Z,48.20
2018-04-07T11:35:25.888Z,46.90
2018-04-07T11:38:27.241Z,44.30
2018-04-07T11:41:28.515Z,42.90
2018-04-07T11:44:29.841Z,43.40
2018-04-07T11:47:31.136Z,46.80
2018-04-07T11:50:33.199Z,45.60
2018-04-07T11:53:34.486Z,45.00
2018-04-07T11:56:35.795Z,42.80
2018-04-07T11:59:37.816Z,49.10
2018-04-07T12:02:39.088Z,48.30
2018-04-07T12:05:40.338Z,42.90
2018-04-07T12:08:41.601Z,42.60
2018-04-07T12:11:42.903Z,43.20
2018-04-07T12:14:44.163Z,42.50
2018-04-07T12:17:45.422Z,42.80
2018-04-07T12:20:46.696Z,43.60
2018-04-07T12:23:48.054Z,41.90
2018-04-07T12:26:49.327Z,43.00
2018-04-07T12:29:51.304Z,40.70
2018-04-07T12:32:54.123Z,41.30
2018-04-07T12:35:56.145Z,41.10
2018-04-07T12:38:57.433Z,41.10
2018-04-07T12:41:58.688Z,40.40
2018-04-07T12:45:00.744Z,43.30
2018-04-07T12:48:02.001Z,43.20
2018-04-07T12:51:03.294Z,40.90
2018-04-07T12:54:04.596Z,38.70
2018-04-07T12:57:05.899Z,39.20
2018-04-07T13:00:07.921Z,41.10
2018-04-07T13:03:09.200Z,41.10
2018-04-07T13:06:10.447Z,39.40
2018-04-07T13:09:12.458Z,39.20
2018-04-07T13:12:13.711Z,39.00
2018-04-07T13:15:15.747Z,42.00
2018-04-07T13:18:17.045Z,42.00
2018-04-07T13:21:18.303Z,37.80
2018-04-07T13:24:19.589Z,38.50
2018-04-07T13:27:20.888Z,36.50
2018-04-07T13:30:22.142Z,36.60
2018-04-07T13:33:23.434Z,37.50
2018-04-07T13:36:24.709Z,36.80
2018-04-07T13:39:25.977Z,37.40
2018-04-07T13:42:27.227Z,38.00
2018-04-07T13:45:29.269Z,37.70
2018-04-07T13:48:30.531Z,37.70
2018-04-07T13:51:31.818Z,36.90
2018-04-07T13:54:33.068Z,38.40
2018-04-07T13:57:34.346Z,34.90
2018-04-07T14:00:36.399Z,36.60
2018-04-07T14:03:37.710Z,36.60
2018-04-07T14:06:39.687Z,35.80
2018-04-07T14:09:40.958Z,35.60
2018-04-07T14:12:42.218Z,38.00
2018-04-07T14:15:43.494Z,39.10
2018-04-07T14:18:44.771Z,35.60
2018-04-07T14:21:46.091Z,38.50
2018-04-07T14:24:47.374Z,40.20
2018-04-07T14:27:49.382Z,37.10
2018-04-07T14:30:51.425Z,36.10
2018-04-07T14:33:52.720Z,36.10
2018-04-07T14:36:54.007Z,37.50
2018-04-07T14:39:55.297Z,35.20
2018-04-07T14:42:56.573Z,35.50
2018-04-07T14:45:57.846Z,36.40
2018-04-07T14:48:59.101Z,35.80
2018-04-07T14:52:00.368Z,36.70
2018-04-07T14:55:01.626Z,36.60
2018-04-07T14:58:02.866Z,40.00
2018-04-07T15:01:04.143Z,37.80
2018-04-07T15:04:05.415Z,36.80
2018-04-07T15:07:06.723Z,39.40
2018-04-07T15:10:08.002Z,37.50
2018-04-07T15:13:10.004Z,36.40
2018-04-07T15:16:11.322Z,36.30
2018-04-07T15:19:12.624Z,36.70
2018-04-07T15:22:13.922Z,36.90
2018-04-07T15:25:16.263Z,37.40
2018-04-07T15:28:18.832Z,37.30
2018-04-07T15:31:20.655Z,39.60
2018-04-07T15:34:22.004Z,38.20
2018-04-07T15:37:23.476Z,38.80
2018-04-07T15:40:25.669Z,37.90
2018-04-07T15:43:28.935Z,37.30
2018-04-07T15:46:30.300Z,37.30
2018-04-07T15:49:32.294Z,36.60
2018-04-07T15:52:34.561Z,37.70
2018-04-07T15:55:36.254Z,37.50
2018-04-07T15:58:39.786Z,37.90
2018-04-07T16:01:41.049Z,37.80
2018-04-07T16:04:42.784Z,39.00
2018-04-07T16:07:45.085Z,38.70
2018-04-07T16:10:47.723Z,38.10
2018-04-07T16:13:49.057Z,38.80
2018-04-07T16:16:50.342Z,39.00
2018-04-07T16:19:51.628Z,40.00
2018-04-07T16:22:53.482Z,40.00
2018-04-07T16:25:55.239Z,42.20
2018-04-07T16:28:56.571Z,40.30
2018-04-07T16:31:58.336Z,40.80
2018-04-07T16:34:59.694Z,40.40
2018-04-07T16:38:01.599Z,40.30
2018-04-07T16:41:02.889Z,40.50
2018-04-07T16:44:04.751Z,41.80
2018-04-07T16:47:06.656Z,42.00
2018-04-07T16:50:08.021Z,40.70
2018-04-07T16:53:10.454Z,41.10
2018-04-07T16:56:11.796Z,41.00
2018-04-07T16:59:13.072Z,42.60
2018-04-07T17:02:14.364Z,42.50
2018-04-07T17:05:16.381Z,42.10
2018-04-07T17:08:17.715Z,42.10
2018-04-07T17:11:19.293Z,42.50
2018-04-07T17:14:21.191Z,43.60
2018-04-07T17:17:22.607Z,46.80
2018-04-07T17:20:24.646Z,50.20
2018-04-07T17:23:25.919Z,50.30
2018-04-07T17:26:28.122Z,51.90
2018-04-07T17:29:29.411Z,53.60
2018-04-07T17:32:31.215Z,52.40
2018-04-07T17:35:33.245Z,56.80
2018-04-07T17:38:35.500Z,57.90
2018-04-07T17:41:38.183Z,57.70
2018-04-07T17:44:40.003Z,57.60
2018-04-07T17:47:41.307Z,64.20
2018-04-07T17:50:42.671Z,63.30
2018-04-07T17:53:44.881Z,63.40
2018-04-07T17:56:46.375Z,68.00
2018-04-07T17:59:47.753Z,72.50
2018-04-07T18:02:49.539Z,74.70
2018-04-07T18:05:51.203Z,72.90
2018-04-07T18:08:52.733Z,80.00
2018-04-07T18:11:54.423Z,80.10
2018-04-07T18:14:56.250Z,81.20
2018-04-07T18:17:57.641Z,85.80
2018-04-07T18:20:59.667Z,85.40
2018-04-07T18:24:02.093Z,90.50
2018-04-07T18:27:03.592Z,90.40
2018-04-07T18:30:05.367Z,90.40
2018-04-07T18:33:06.967Z,90.30
2018-04-07T18:36:08.479Z,91.70
2018-04-07T18:39:10.666Z,91.50
2018-04-07T18:42:12.696Z,91.80
2018-04-07T18:45:14.731Z,91.80
2018-04-07T18:48:16.131Z,91.80
2018-04-07T18:51:17.881Z,92.50
2018-04-07T18:54:19.144Z,92.20
2018-04-07T18:57:21.674Z,92.90
2018-04-07T19:00:23.793Z,92.90
2018-04-07T19:03:25.567Z,92.90
2018-04-07T19:06:27.522Z,93.10
2018-04-07T19:09:30.579Z,93.20
2018-04-07T19:12:32.634Z,93.20
2018-04-07T19:15:34.406Z,94.00
2018-04-07T19:18:35.996Z,94.20
2018-04-07T19:21:38.356Z,94.10
2018-04-07T19:24:40.188Z,94.10
2018-04-07T19:27:42.668Z,94.50
2018-04-07T19:30:44.401Z,94.50
2018-04-07T19:33:46.141Z,94.70
2018-04-07T19:36:47.811Z,94.70
2018-04-07T19:39:49.117Z,94.70
2018-04-07T19:42:50.670Z,95.10
2018-04-07T19:45:52.105Z,95.00
2018-04-07T19:48:54.982Z,95.10
2018-04-07T19:51:56.353Z,95.10
2018-04-07T19:54:58.546Z,94.90
2018-04-07T19:58:00.574Z,94.70
2018-04-07T20:01:01.887Z,94.60
2018-04-07T20:04:04.285Z,95.40
2018-04-07T20:07:05.664Z,95.20
2018-04-07T20:10:07.761Z,95.10
2018-04-07T20:13:09.562Z,95.10
2018-04-07T20:16:10.954Z,95.00
2018-04-07T20:19:12.703Z,94.40
2018-04-07T20:22:14.263Z,95.40
2018-04-07T20:25:17.125Z,94.80
2018-04-07T20:28:18.662Z,94.80
2018-04-07T20:31:20.234Z,95.30
2018-04-07T20:34:22.095Z,95.50
2018-04-07T20:37:24.129Z,96.20
2018-04-07T20:40:26.126Z,93.10
2018-04-07T20:43:28.300Z,91.50
2018-04-07T20:46:30.823Z,90.50
2018-04-07T20:49:32.719Z,90.50
2018-04-07T20:52:35.358Z,91.00
2018-04-07T20:55:37.292Z,92.20
2018-04-07T20:58:38.571Z,92.60
2018-04-07T21:01:40.958Z,93.60
2018-04-07T21:04:42.651Z,93.60
2018-04-07T21:07:44.125Z,92.60
2018-04-07T21:10:45.697Z,93.10
2018-04-07T21:13:47.150Z,93.90
2018-04-07T21:16:49.821Z,93.80
2018-04-07T21:19:51.183Z,93.70
2018-04-07T21:22:53.027Z,93.80
2018-04-07T21:25:55.529Z,94.20
2018-04-07T21:28:56.898Z,94.10
2018-04-07T21:31:58.254Z,94.30
2018-04-07T21:34:59.584Z,93.60
2018-04-07T21:38:01.584Z,93.10
2018-04-07T21:41:03.631Z,92.50
2018-04-07T21:44:04.899Z,92.50
2018-04-07T21:47:06.148Z,93.70
2018-04-07T21:50:07.434Z,93.50
2018-04-07T21:53:08.747Z,92.30
2018-04-07T21:56:09.990Z,93.20
2018-04-07T21:59:11.400Z,92.50
2018-04-07T22:02:12.656Z,93.00
2018-04-07T22:05:13.952Z,93.10
2018-04-07T22:08:15.230Z,92.80
2018-04-07T22:11:16.567Z,93.20
2018-04-07T22:14:17.800Z,93.30
2018-04-07T22:17:19.849Z,93.70
2018-04-07T22:20:21.890Z,93.70
2018-04-07T22:23:23.164Z,93.70
2018-04-07T22:26:24.436Z,93.30
2018-04-07T22:29:25.718Z,92.50
2018-04-07T22:32:26.948Z,92.80
2018-04-07T22:35:28.228Z,92.60
2018-04-07T22:38:30.252Z,93.20
2018-04-07T22:41:31.541Z,93.00
2018-04-07T22:44:32.814Z,93.30
2018-04-07T22:47:34.101Z,92.70
2018-04-07T22:50:35.365Z,93.00
2018-04-07T22:53:36.624Z,92.90
2018-04-07T22:56:38.658Z,92.60
2018-04-07T22:59:39.931Z,92.60
2018-04-07T23:02:41.205Z,92.30
2018-04-07T23:05:42.459Z,91.90
2018-04-07T23:08:44.468Z,92.30
2018-04-07T23:11:45.743Z,92.20
2018-04-07T23:14:47.006Z,90.90
2018-04-07T23:17:49.077Z,91.70
2018-04-07T23:20:50.312Z,91.60
2018-04-07T23:23:51.613Z,91.10
2018-04-07T23:26:59.851Z,92.10
2018-04-07T23:30:01.132Z,90.70
2018-04-07T23:33:02.436Z,92.00
2018-04-07T23:36:03.707Z,91.20
2018-04-07T23:39:04.987Z,92.30
2018-04-07T23:42:06.259Z,92.30
2018-04-07T23:45:07.533Z,91.90
2018-04-07T23:48:08.791Z,92.30
2018-04-07T23:51:10.073Z,92.70
2018-04-07T23:54:11.312Z,92.00
2018-04-07T23:57:13.326Z,92.70
